KCPS/CPS METAR and TAF weather

Enter ICAO airport designator
Station Type Date Time Source
KCPS METAR 2020/09/25 06:17 UTC NOAA

KCPS 250617Z AUTO 00000KT 1 3/4SM BR CLR 13/12 A2994 RMK AO2 T01280122


Station Type Date Time Source
KCPS Decoded METAR 2020/09/25 06:17 UTC NOAA

ST LOUIS DOWNTOWN AIRPORT, IL, United States (KCPS) 38-34N 090-09W 126M
Sep 25, 2020 - 02:17 AM EDT / 2020.09.25 0617 UTC
Wind: Calm:0
Visibility: 1 3/4 mile(s):0
Sky conditions: clear
Weather: mist
Temperature: 55.0 F (12.8 C)
Dew Point: 54.0 F (12.2 C)
Relative Humidity: 96%
Pressure (altimeter): 29.94 in. Hg (1013 hPa)
ob: KCPS 250617Z AUTO 00000KT 1 3/4SM BR CLR 13/12 A2994 RMK AO2 T01280122
cycle: 6

Station Type Date Time Source
KCPS TAF 2020/09/25 06:22 UTC NOAA

TAF KCPS 250520Z 2506/2606 VRB04KT 5SM BR FEW005
TEMPO 2506/2509 2SM BR BKN003
FM250900 00000KT 2SM BR BKN005
TEMPO 2510/2512 1/2SM FG VV002
FM251300 VRB04KT 5SM BR BKN010
FM251600 16005KT P6SM SCT030
FM260100 VRB04KT P6SM SKC

Example: see airport list